sensor_id;sensor_type;location;lat;lon;timestamp;temperature;humidity
40828;DHT22;26549;50.918;5.338;2023-06-19T00:00:54;23.10;94.00
40828;DHT22;26549;50.918;5.338;2023-06-19T00:03:19;23.20;94.10
40828;DHT22;26549;50.918;5.338;2023-06-19T00:05:45;23.10;94.30
40828;DHT22;26549;50.918;5.338;2023-06-19T00:08:11;23.10;94.40
40828;DHT22;26549;50.918;5.338;2023-06-19T00:10:36;23.10;94.70
40828;DHT22;26549;50.918;5.338;2023-06-19T00:13:02;23.10;94.80
40828;DHT22;26549;50.918;5.338;2023-06-19T00:15:28;23.10;94.90
40828;DHT22;26549;50.918;5.338;2023-06-19T00:17:56;23.00;95.20
40828;DHT22;26549;50.918;5.338;2023-06-19T00:20:23;23.00;95.30
40828;DHT22;26549;50.918;5.338;2023-06-19T00:22:49;22.90;95.50
40828;DHT22;26549;50.918;5.338;2023-06-19T00:25:18;22.80;95.70
40828;DHT22;26549;50.918;5.338;2023-06-19T00:27:45;22.80;95.80
40828;DHT22;26549;50.918;5.338;2023-06-19T00:30:10;22.90;95.80
40828;DHT22;26549;50.918;5.338;2023-06-19T00:32:37;22.80;95.90
40828;DHT22;26549;50.918;5.338;2023-06-19T00:35:13;22.80;95.90
40828;DHT22;26549;50.918;5.338;2023-06-19T00:37:39;22.90;95.90
40828;DHT22;26549;50.918;5.338;2023-06-19T00:40:07;22.90;95.90
40828;DHT22;26549;50.918;5.338;2023-06-19T00:42:36;22.90;96.00
40828;DHT22;26549;50.918;5.338;2023-06-19T00:45:01;22.70;96.60
40828;DHT22;26549;50.918;5.338;2023-06-19T00:47:27;22.70;96.30
40828;DHT22;26549;50.918;5.338;2023-06-19T00:49:53;22.70;96.60
40828;DHT22;26549;50.918;5.338;2023-06-19T00:52:19;22.70;96.60
40828;DHT22;26549;50.918;5.338;2023-06-19T00:54:45;22.60;96.80
40828;DHT22;26549;50.918;5.338;2023-06-19T00:57:10;22.60;96.80
40828;DHT22;26549;50.918;5.338;2023-06-19T00:59:36;22.50;97.00
40828;DHT22;26549;50.918;5.338;2023-06-19T01:02:02;22.60;97.00
40828;DHT22;26549;50.918;5.338;2023-06-19T01:04:28;22.50;97.20
40828;DHT22;26549;50.918;5.338;2023-06-19T01:07:31;22.60;97.10
40828;DHT22;26549;50.918;5.338;2023-06-19T01:09:52;22.60;97.20
40828;DHT22;26549;50.918;5.338;2023-06-19T01:12:22;22.40;97.60
40828;DHT22;26549;50.918;5.338;2023-06-19T01:15:02;22.40;97.70
40828;DHT22;26549;50.918;5.338;2023-06-19T01:17:29;22.50;97.60
40828;DHT22;26549;50.918;5.338;2023-06-19T01:19:58;22.40;97.90
40828;DHT22;26549;50.918;5.338;2023-06-19T01:22:31;22.30;98.30
40828;DHT22;26549;50.918;5.338;2023-06-19T01:24:57;22.30;98.40
40828;DHT22;26549;50.918;5.338;2023-06-19T01:27:24;22.30;98.60
40828;DHT22;26549;50.918;5.338;2023-06-19T01:29:59;22.40;98.50
40828;DHT22;26549;50.918;5.338;2023-06-19T01:34:57;22.30;99.00
40828;DHT22;26549;50.918;5.338;2023-06-19T01:37:25;22.30;99.10
40828;DHT22;26549;50.918;5.338;2023-06-19T01:39:56;22.20;99.50
40828;DHT22;26549;50.918;5.338;2023-06-19T01:42:22;22.20;99.60
40828;DHT22;26549;50.918;5.338;2023-06-19T01:44:49;22.20;99.60
40828;DHT22;26549;50.918;5.338;2023-06-19T01:47:15;22.10;99.90
40828;DHT22;26549;50.918;5.338;2023-06-19T01:49:46;22.00;99.90
40828;DHT22;26549;50.918;5.338;2023-06-19T01:52:12;22.00;99.90
40828;DHT22;26549;50.918;5.338;2023-06-19T01:54:39;21.80;99.90
40828;DHT22;26549;50.918;5.338;2023-06-19T01:57:05;21.80;99.90
40828;DHT22;26549;50.918;5.338;2023-06-19T01:59:31;21.70;99.90
40828;DHT22;26549;50.918;5.338;2023-06-19T02:01:56;21.70;99.90
40828;DHT22;26549;50.918;5.338;2023-06-19T02:04:22;21.60;99.90
40828;DHT22;26549;50.918;5.338;2023-06-19T02:06:48;21.60;99.90
40828;DHT22;26549;50.918;5.338;2023-06-19T02:09:14;21.70;99.90
40828;DHT22;26549;50.918;5.338;2023-06-19T02:11:39;21.70;99.90
40828;DHT22;26549;50.918;5.338;2023-06-19T02:14:05;21.60;99.90
40828;DHT22;26549;50.918;5.338;2023-06-19T02:16:31;21.50;99.90
40828;DHT22;26549;50.918;5.338;2023-06-19T02:18:56;21.30;99.90
40828;DHT22;26549;50.918;5.338;2023-06-19T02:21:23;21.30;99.90
40828;DHT22;26549;50.918;5.338;2023-06-19T02:23:48;21.30;99.90
40828;DHT22;26549;50.918;5.338;2023-06-19T02:26:15;21.30;99.90
40828;DHT22;26549;50.918;5.338;2023-06-19T02:28:41;21.10;99.90
40828;DHT22;26549;50.918;5.338;2023-06-19T02:31:06;21.20;99.90
40828;DHT22;26549;50.918;5.338;2023-06-19T02:33:32;21.20;99.90
40828;DHT22;26549;50.918;5.338;2023-06-19T02:35:58;21.10;99.90
40828;DHT22;26549;50.918;5.338;2023-06-19T02:38:25;21.10;99.90
40828;DHT22;26549;50.918;5.338;2023-06-19T02:40:51;21.00;99.90
40828;DHT22;26549;50.918;5.338;2023-06-19T02:43:16;21.00;99.90
40828;DHT22;26549;50.918;5.338;2023-06-19T02:45:42;20.90;99.90
40828;DHT22;26549;50.918;5.338;2023-06-19T02:48:08;20.90;99.90
40828;DHT22;26549;50.918;5.338;2023-06-19T02:50:35;21.00;99.90
40828;DHT22;26549;50.918;5.338;2023-06-19T02:53:01;21.10;99.90
40828;DHT22;26549;50.918;5.338;2023-06-19T02:55:27;21.10;99.90
40828;DHT22;26549;50.918;5.338;2023-06-19T02:57:52;20.90;99.90
40828;DHT22;26549;50.918;5.338;2023-06-19T03:00:19;20.90;99.90
40828;DHT22;26549;50.918;5.338;2023-06-19T03:02:45;20.90;99.90
40828;DHT22;26549;50.918;5.338;2023-06-19T03:05:13;20.90;99.90
40828;DHT22;26549;50.918;5.338;2023-06-19T03:07:42;20.90;99.90
40828;DHT22;26549;50.918;5.338;2023-06-19T03:10:08;20.90;99.90
40828;DHT22;26549;50.918;5.338;2023-06-19T03:12:34;20.90;99.90
40828;DHT22;26549;50.918;5.338;2023-06-19T03:15:00;20.80;99.90
40828;DHT22;26549;50.918;5.338;2023-06-19T03:17:26;20.80;99.90
40828;DHT22;26549;50.918;5.338;2023-06-19T03:19:51;20.80;99.90
40828;DHT22;26549;50.918;5.338;2023-06-19T03:22:19;20.90;99.90
40828;DHT22;26549;50.918;5.338;2023-06-19T03:24:45;21.00;99.90
40828;DHT22;26549;50.918;5.338;2023-06-19T03:27:10;20.90;99.90
40828;DHT22;26549;50.918;5.338;2023-06-19T03:29:36;20.80;99.90
40828;DHT22;26549;50.918;5.338;2023-06-19T03:32:02;20.90;99.90
40828;DHT22;26549;50.918;5.338;2023-06-19T03:34:28;20.90;99.90
40828;DHT22;26549;50.918;5.338;2023-06-19T03:36:53;21.00;99.90
40828;DHT22;26549;50.918;5.338;2023-06-19T03:39:19;21.00;99.90
40828;DHT22;26549;50.918;5.338;2023-06-19T03:41:45;21.00;99.90
40828;DHT22;26549;50.918;5.338;2023-06-19T03:44:10;20.90;99.90
40828;DHT22;26549;50.918;5.338;2023-06-19T03:46:36;21.00;99.90
40828;DHT22;26549;50.918;5.338;2023-06-19T03:49:02;21.10;99.90
40828;DHT22;26549;50.918;5.338;2023-06-19T03:51:30;21.10;99.90
40828;DHT22;26549;50.918;5.338;2023-06-19T03:53:56;21.20;99.90
40828;DHT22;26549;50.918;5.338;2023-06-19T03:56:22;21.20;99.90
40828;DHT22;26549;50.918;5.338;2023-06-19T03:58:47;21.20;99.90
40828;DHT22;26549;50.918;5.338;2023-06-19T04:01:13;21.20;99.90
40828;DHT22;26549;50.918;5.338;2023-06-19T04:03:39;21.30;99.90
40828;DHT22;26549;50.918;5.338;2023-06-19T04:06:04;21.20;99.90
40828;DHT22;26549;50.918;5.338;2023-06-19T04:08:30;21.20;99.90
40828;DHT22;26549;50.918;5.338;2023-06-19T04:10:56;21.20;99.90
40828;DHT22;26549;50.918;5.338;2023-06-19T04:13:22;21.20;99.90
40828;DHT22;26549;50.918;5.338;2023-06-19T04:15:47;21.30;99.90
40828;DHT22;26549;50.918;5.338;2023-06-19T04:18:13;21.20;99.90
40828;DHT22;26549;50.918;5.338;2023-06-19T04:20:39;21.20;99.90
40828;DHT22;26549;50.918;5.338;2023-06-19T04:23:05;21.20;99.90
40828;DHT22;26549;50.918;5.338;2023-06-19T04:25:31;21.20;99.90
40828;DHT22;26549;50.918;5.338;2023-06-19T04:27:57;21.10;99.90
40828;DHT22;26549;50.918;5.338;2023-06-19T04:30:22;21.10;99.90
40828;DHT22;26549;50.918;5.338;2023-06-19T04:32:48;21.20;99.90
40828;DHT22;26549;50.918;5.338;2023-06-19T04:35:14;21.20;99.90
40828;DHT22;26549;50.918;5.338;2023-06-19T04:37:39;21.20;99.90
40828;DHT22;26549;50.918;5.338;2023-06-19T04:40:06;21.10;99.90
40828;DHT22;26549;50.918;5.338;2023-06-19T04:42:33;21.10;99.90
40828;DHT22;26549;50.918;5.338;2023-06-19T04:44:59;21.00;99.90
40828;DHT22;26549;50.918;5.338;2023-06-19T04:47:25;21.00;99.90
40828;DHT22;26549;50.918;5.338;2023-06-19T04:49:51;21.00;99.90
40828;DHT22;26549;50.918;5.338;2023-06-19T04:52:16;20.80;99.90
40828;DHT22;26549;50.918;5.338;2023-06-19T04:54:44;20.90;99.90
40828;DHT22;26549;50.918;5.338;2023-06-19T04:57:09;20.90;99.90
40828;DHT22;26549;50.918;5.338;2023-06-19T04:59:36;20.90;99.90
40828;DHT22;26549;50.918;5.338;2023-06-19T05:02:02;20.90;99.90
40828;DHT22;26549;50.918;5.338;2023-06-19T05:04:28;20.80;99.90
40828;DHT22;26549;50.918;5.338;2023-06-19T05:06:58;20.90;99.90
40828;DHT22;26549;50.918;5.338;2023-06-19T05:09:24;20.90;99.90
40828;DHT22;26549;50.918;5.338;2023-06-19T05:11:51;20.90;99.90
40828;DHT22;26549;50.918;5.338;2023-06-19T05:14:17;20.90;99.90
40828;DHT22;26549;50.918;5.338;2023-06-19T05:16:42;20.90;99.90
40828;DHT22;26549;50.918;5.338;2023-06-19T05:19:08;21.00;99.90
40828;DHT22;26549;50.918;5.338;2023-06-19T05:21:34;21.10;99.90
40828;DHT22;26549;50.918;5.338;2023-06-19T05:24:00;21.10;99.90
40828;DHT22;26549;50.918;5.338;2023-06-19T05:26:25;21.10;99.90
40828;DHT22;26549;50.918;5.338;2023-06-19T05:28:52;21.10;99.90
40828;DHT22;26549;50.918;5.338;2023-06-19T05:31:17;21.00;99.90
40828;DHT22;26549;50.918;5.338;2023-06-19T05:33:44;21.10;99.90
40828;DHT22;26549;50.918;5.338;2023-06-19T05:36:10;21.20;99.90
40828;DHT22;26549;50.918;5.338;2023-06-19T05:38:36;21.20;99.90
40828;DHT22;26549;50.918;5.338;2023-06-19T05:41:02;21.20;99.90
40828;DHT22;26549;50.918;5.338;2023-06-19T05:43:28;21.20;99.90
40828;DHT22;26549;50.918;5.338;2023-06-19T05:45:54;21.10;99.90
40828;DHT22;26549;50.918;5.338;2023-06-19T05:48:25;21.20;99.90
40828;DHT22;26549;50.918;5.338;2023-06-19T05:50:51;21.20;99.90
40828;DHT22;26549;50.918;5.338;2023-06-19T05:53:17;21.20;99.90
40828;DHT22;26549;50.918;5.338;2023-06-19T05:55:42;21.30;99.90
40828;DHT22;26549;50.918;5.338;2023-06-19T05:58:09;21.30;99.90
40828;DHT22;26549;50.918;5.338;2023-06-19T06:00:34;21.30;99.90
40828;DHT22;26549;50.918;5.338;2023-06-19T06:03:01;21.30;99.90
40828;DHT22;26549;50.918;5.338;2023-06-19T06:05:27;21.40;99.90
40828;DHT22;26549;50.918;5.338;2023-06-19T06:07:54;21.40;99.90
40828;DHT22;26549;50.918;5.338;2023-06-19T06:10:23;21.40;99.90
40828;DHT22;26549;50.918;5.338;2023-06-19T06:12:50;21.60;99.90
40828;DHT22;26549;50.918;5.338;2023-06-19T06:15:16;21.60;99.90
40828;DHT22;26549;50.918;5.338;2023-06-19T06:17:42;21.50;99.90
40828;DHT22;26549;50.918;5.338;2023-06-19T06:20:09;21.60;99.90
40828;DHT22;26549;50.918;5.338;2023-06-19T06:22:41;21.70;99.90
40828;DHT22;26549;50.918;5.338;2023-06-19T06:25:08;22.00;99.90
40828;DHT22;26549;50.918;5.338;2023-06-19T06:27:35;22.10;99.90
40828;DHT22;26549;50.918;5.338;2023-06-19T06:30:03;22.10;99.90
40828;DHT22;26549;50.918;5.338;2023-06-19T06:32:29;22.20;99.90
40828;DHT22;26549;50.918;5.338;2023-06-19T06:34:56;22.30;99.90
40828;DHT22;26549;50.918;5.338;2023-06-19T06:37:22;22.30;99.90
40828;DHT22;26549;50.918;5.338;2023-06-19T06:39:48;22.50;99.90
40828;DHT22;26549;50.918;5.338;2023-06-19T06:42:18;22.80;99.90
40828;DHT22;26549;50.918;5.338;2023-06-19T06:44:44;22.90;99.90
40828;DHT22;26549;50.918;5.338;2023-06-19T06:47:11;23.00;99.90
40828;DHT22;26549;50.918;5.338;2023-06-19T06:49:36;23.10;99.90
40828;DHT22;26549;50.918;5.338;2023-06-19T06:52:07;23.20;99.90
40828;DHT22;26549;50.918;5.338;2023-06-19T06:54:33;23.30;99.90
40828;DHT22;26549;50.918;5.338;2023-06-19T06:56:58;23.00;99.90
40828;DHT22;26549;50.918;5.338;2023-06-19T06:59:25;23.10;99.90
40828;DHT22;26549;50.918;5.338;2023-06-19T07:01:53;23.10;99.90
40828;DHT22;26549;50.918;5.338;2023-06-19T07:04:18;23.10;99.90
40828;DHT22;26549;50.918;5.338;2023-06-19T07:06:44;23.10;99.90
40828;DHT22;26549;50.918;5.338;2023-06-19T07:09:11;23.10;99.90
40828;DHT22;26549;50.918;5.338;2023-06-19T07:11:36;23.10;99.90
40828;DHT22;26549;50.918;5.338;2023-06-19T07:14:02;23.00;99.90
40828;DHT22;26549;50.918;5.338;2023-06-19T07:16:28;23.20;99.90
40828;DHT22;26549;50.918;5.338;2023-06-19T07:18:54;23.30;99.90
40828;DHT22;26549;50.918;5.338;2023-06-19T07:21:19;23.20;99.90
40828;DHT22;26549;50.918;5.338;2023-06-19T07:23:46;23.30;99.90
40828;DHT22;26549;50.918;5.338;2023-06-19T07:26:14;23.40;99.90
40828;DHT22;26549;50.918;5.338;2023-06-19T07:28:40;23.40;99.90
40828;DHT22;26549;50.918;5.338;2023-06-19T07:31:06;23.50;99.90
40828;DHT22;26549;50.918;5.338;2023-06-19T07:33:32;23.30;99.90
40828;DHT22;26549;50.918;5.338;2023-06-19T07:35:57;23.00;99.90
40828;DHT22;26549;50.918;5.338;2023-06-19T07:38:23;23.00;99.90
40828;DHT22;26549;50.918;5.338;2023-06-19T07:40:49;23.10;99.90
40828;DHT22;26549;50.918;5.338;2023-06-19T07:43:15;23.30;99.90
40828;DHT22;26549;50.918;5.338;2023-06-19T07:45:40;23.30;99.90
40828;DHT22;26549;50.918;5.338;2023-06-19T07:48:06;23.00;99.90
40828;DHT22;26549;50.918;5.338;2023-06-19T07:50:32;23.00;99.90
40828;DHT22;26549;50.918;5.338;2023-06-19T07:52:58;22.90;99.90
40828;DHT22;26549;50.918;5.338;2023-06-19T07:55:24;22.90;99.90
40828;DHT22;26549;50.918;5.338;2023-06-19T07:57:50;22.80;99.90
40828;DHT22;26549;50.918;5.338;2023-06-19T08:00:17;22.80;99.90
40828;DHT22;26549;50.918;5.338;2023-06-19T08:02:43;22.80;99.90
40828;DHT22;26549;50.918;5.338;2023-06-19T08:05:09;22.90;99.90
40828;DHT22;26549;50.918;5.338;2023-06-19T08:07:35;23.00;99.90
40828;DHT22;26549;50.918;5.338;2023-06-19T08:10:02;23.10;99.90
40828;DHT22;26549;50.918;5.338;2023-06-19T08:12:30;23.30;99.90
40828;DHT22;26549;50.918;5.338;2023-06-19T08:14:55;23.50;99.90
40828;DHT22;26549;50.918;5.338;2023-06-19T08:17:21;23.70;99.90
40828;DHT22;26549;50.918;5.338;2023-06-19T08:19:47;23.90;99.90
40828;DHT22;26549;50.918;5.338;2023-06-19T08:22:13;23.90;99.90
40828;DHT22;26549;50.918;5.338;2023-06-19T08:24:39;23.80;99.90
40828;DHT22;26549;50.918;5.338;2023-06-19T08:27:06;23.80;99.90
40828;DHT22;26549;50.918;5.338;2023-06-19T08:29:32;23.80;99.90
40828;DHT22;26549;50.918;5.338;2023-06-19T08:31:58;23.90;99.50
40828;DHT22;26549;50.918;5.338;2023-06-19T08:34:24;23.90;99.90
40828;DHT22;26549;50.918;5.338;2023-06-19T08:36:50;24.10;99.60
40828;DHT22;26549;50.918;5.338;2023-06-19T08:39:16;24.20;99.80
40828;DHT22;26549;50.918;5.338;2023-06-19T08:41:42;24.30;99.70
40828;DHT22;26549;50.918;5.338;2023-06-19T08:44:08;24.30;99.60
40828;DHT22;26549;50.918;5.338;2023-06-19T08:46:35;24.40;99.70
40828;DHT22;26549;50.918;5.338;2023-06-19T08:49:03;24.40;99.10
40828;DHT22;26549;50.918;5.338;2023-06-19T08:51:31;24.10;98.90
40828;DHT22;26549;50.918;5.338;2023-06-19T08:54:07;24.00;99.40
40828;DHT22;26549;50.918;5.338;2023-06-19T08:56:34;23.80;99.50
40828;DHT22;26549;50.918;5.338;2023-06-19T08:59:14;24.00;99.40
40828;DHT22;26549;50.918;5.338;2023-06-19T09:01:46;24.00;98.90
40828;DHT22;26549;50.918;5.338;2023-06-19T09:04:18;24.10;98.80
40828;DHT22;26549;50.918;5.338;2023-06-19T09:09:19;24.00;98.80
40828;DHT22;26549;50.918;5.338;2023-06-19T09:12:08;24.20;98.50
40828;DHT22;26549;50.918;5.338;2023-06-19T09:14:44;24.40;98.90
40828;DHT22;26549;50.918;5.338;2023-06-19T09:17:20;24.40;98.00
40828;DHT22;26549;50.918;5.338;2023-06-19T09:19:51;24.60;98.30
40828;DHT22;26549;50.918;5.338;2023-06-19T09:22:18;24.70;97.50
40828;DHT22;26549;50.918;5.338;2023-06-19T09:24:44;24.50;97.10
40828;DHT22;26549;50.918;5.338;2023-06-19T09:27:12;24.40;97.50
40828;DHT22;26549;50.918;5.338;2023-06-19T09:29:43;24.50;97.50
40828;DHT22;26549;50.918;5.338;2023-06-19T09:32:20;24.70;97.40
40828;DHT22;26549;50.918;5.338;2023-06-19T09:34:48;24.50;97.30
40828;DHT22;26549;50.918;5.338;2023-06-19T09:37:14;24.60;97.60
40828;DHT22;26549;50.918;5.338;2023-06-19T09:39:41;24.50;97.10
40828;DHT22;26549;50.918;5.338;2023-06-19T09:42:09;24.60;97.70
40828;DHT22;26549;50.918;5.338;2023-06-19T09:44:48;24.80;96.80
40828;DHT22;26549;50.918;5.338;2023-06-19T09:47:24;24.80;96.50
40828;DHT22;26549;50.918;5.338;2023-06-19T09:49:55;24.80;96.30
40828;DHT22;26549;50.918;5.338;2023-06-19T09:52:22;24.80;96.70
40828;DHT22;26549;50.918;5.338;2023-06-19T09:54:53;24.70;96.50
40828;DHT22;26549;50.918;5.338;2023-06-19T09:57:21;24.50;96.90
40828;DHT22;26549;50.918;5.338;2023-06-19T09:59:53;24.50;96.70
40828;DHT22;26549;50.918;5.338;2023-06-19T10:02:20;24.60;97.30
40828;DHT22;26549;50.918;5.338;2023-06-19T10:04:53;24.90;96.80
40828;DHT22;26549;50.918;5.338;2023-06-19T10:07:23;25.00;96.20
40828;DHT22;26549;50.918;5.338;2023-06-19T10:12:47;25.20;96.20
40828;DHT22;26549;50.918;5.338;2023-06-19T10:15:20;25.10;96.80
40828;DHT22;26549;50.918;5.338;2023-06-19T10:17:50;25.10;96.10
40828;DHT22;26549;50.918;5.338;2023-06-19T10:20:32;25.10;96.80
40828;DHT22;26549;50.918;5.338;2023-06-19T10:23:01;25.20;96.70
40828;DHT22;26549;50.918;5.338;2023-06-19T10:25:29;25.30;95.50
40828;DHT22;26549;50.918;5.338;2023-06-19T10:27:55;25.30;95.90
40828;DHT22;26549;50.918;5.338;2023-06-19T10:30:21;25.40;95.50
40828;DHT22;26549;50.918;5.338;2023-06-19T10:32:48;25.40;95.40
40828;DHT22;26549;50.918;5.338;2023-06-19T10:35:15;25.60;94.70
40828;DHT22;26549;50.918;5.338;2023-06-19T10:37:41;25.70;94.60
40828;DHT22;26549;50.918;5.338;2023-06-19T10:40:08;25.90;94.50
40828;DHT22;26549;50.918;5.338;2023-06-19T10:42:38;26.10;93.20
40828;DHT22;26549;50.918;5.338;2023-06-19T10:45:06;26.10;93.90
40828;DHT22;26549;50.918;5.338;2023-06-19T10:47:33;26.00;94.00
40828;DHT22;26549;50.918;5.338;2023-06-19T10:49:58;26.00;93.90
40828;DHT22;26549;50.918;5.338;2023-06-19T10:52:24;26.00;93.80
40828;DHT22;26549;50.918;5.338;2023-06-19T10:54:54;26.20;93.10
40828;DHT22;26549;50.918;5.338;2023-06-19T10:57:31;26.10;93.20
40828;DHT22;26549;50.918;5.338;2023-06-19T10:59:58;26.00;93.60
40828;DHT22;26549;50.918;5.338;2023-06-19T11:02:27;26.10;94.60
40828;DHT22;26549;50.918;5.338;2023-06-19T11:04:54;26.20;93.90
40828;DHT22;26549;50.918;5.338;2023-06-19T11:07:20;26.30;93.50
40828;DHT22;26549;50.918;5.338;2023-06-19T11:09:46;26.30;93.60
40828;DHT22;26549;50.918;5.338;2023-06-19T11:12:12;26.30;93.70
40828;DHT22;26549;50.918;5.338;2023-06-19T11:14:37;26.20;92.70
40828;DHT22;26549;50.918;5.338;2023-06-19T11:17:06;26.20;93.50
40828;DHT22;26549;50.918;5.338;2023-06-19T11:19:32;26.30;93.10
40828;DHT22;26549;50.918;5.338;2023-06-19T11:22:01;26.60;93.00
40828;DHT22;26549;50.918;5.338;2023-06-19T11:24:29;26.40;92.10
40828;DHT22;26549;50.918;5.338;2023-06-19T11:26:57;26.50;92.10
40828;DHT22;26549;50.918;5.338;2023-06-19T11:29:30;26.40;92.00
40828;DHT22;26549;50.918;5.338;2023-06-19T11:32:12;26.60;93.00
40828;DHT22;26549;50.918;5.338;2023-06-19T11:34:38;26.60;92.40
40828;DHT22;26549;50.918;5.338;2023-06-19T11:37:13;26.50;92.20
40828;DHT22;26549;50.918;5.338;2023-06-19T11:39:40;26.60;91.60
40828;DHT22;26549;50.918;5.338;2023-06-19T11:42:07;26.60;91.30
40828;DHT22;26549;50.918;5.338;2023-06-19T11:44:33;26.50;91.20
40828;DHT22;26549;50.918;5.338;2023-06-19T11:47:00;26.60;91.40
40828;DHT22;26549;50.918;5.338;2023-06-19T11:49:26;26.60;91.30
40828;DHT22;26549;50.918;5.338;2023-06-19T11:51:53;26.80;91.40
40828;DHT22;26549;50.918;5.338;2023-06-19T11:54:19;26.90;91.40
40828;DHT22;26549;50.918;5.338;2023-06-19T11:56:46;27.00;91.10
40828;DHT22;26549;50.918;5.338;2023-06-19T11:59:13;27.00;90.60
40828;DHT22;26549;50.918;5.338;2023-06-19T12:01:40;26.70;90.90
40828;DHT22;26549;50.918;5.338;2023-06-19T12:04:06;26.50;91.10
40828;DHT22;26549;50.918;5.338;2023-06-19T12:06:32;26.50;90.70
40828;DHT22;26549;50.918;5.338;2023-06-19T12:08:58;26.40;91.10
40828;DHT22;26549;50.918;5.338;2023-06-19T12:11:24;26.40;92.10
40828;DHT22;26549;50.918;5.338;2023-06-19T12:13:50;26.50;91.10
40828;DHT22;26549;50.918;5.338;2023-06-19T12:16:16;26.50;91.10
40828;DHT22;26549;50.918;5.338;2023-06-19T12:18:42;26.60;91.80
40828;DHT22;26549;50.918;5.338;2023-06-19T12:21:08;26.90;91.20
40828;DHT22;26549;50.918;5.338;2023-06-19T12:23:34;27.00;91.10
40828;DHT22;26549;50.918;5.338;2023-06-19T12:26:00;27.00;90.50
40828;DHT22;26549;50.918;5.338;2023-06-19T12:28:25;27.20;90.50
40828;DHT22;26549;50.918;5.338;2023-06-19T12:30:53;26.50;89.60
40828;DHT22;26549;50.918;5.338;2023-06-19T12:33:19;26.70;90.50
40828;DHT22;26549;50.918;5.338;2023-06-19T12:35:48;26.70;89.90
40828;DHT22;26549;50.918;5.338;2023-06-19T12:38:14;26.90;90.30
40828;DHT22;26549;50.918;5.338;2023-06-19T12:40:41;27.10;90.50
40828;DHT22;26549;50.918;5.338;2023-06-19T12:43:07;27.10;90.00
40828;DHT22;26549;50.918;5.338;2023-06-19T12:45:32;27.40;86.60
40828;DHT22;26549;50.918;5.338;2023-06-19T12:47:58;27.40;86.90
40828;DHT22;26549;50.918;5.338;2023-06-19T12:50:24;27.40;87.60
40828;DHT22;26549;50.918;5.338;2023-06-19T12:52:50;27.40;86.00
40828;DHT22;26549;50.918;5.338;2023-06-19T12:55:16;26.80;87.70
40828;DHT22;26549;50.918;5.338;2023-06-19T12:57:42;26.70;88.00
40828;DHT22;26549;50.918;5.338;2023-06-19T13:00:12;26.90;87.10
40828;DHT22;26549;50.918;5.338;2023-06-19T13:02:38;26.80;87.90
40828;DHT22;26549;50.918;5.338;2023-06-19T13:05:09;26.80;87.60
40828;DHT22;26549;50.918;5.338;2023-06-19T13:07:35;27.00;88.30
40828;DHT22;26549;50.918;5.338;2023-06-19T13:10:01;27.20;87.00
40828;DHT22;26549;50.918;5.338;2023-06-19T13:12:27;27.30;88.90
40828;DHT22;26549;50.918;5.338;2023-06-19T13:14:52;27.40;86.10
40828;DHT22;26549;50.918;5.338;2023-06-19T13:17:18;27.10;87.10
40828;DHT22;26549;50.918;5.338;2023-06-19T13:19:44;27.10;86.50
40828;DHT22;26549;50.918;5.338;2023-06-19T13:22:10;27.20;87.60
40828;DHT22;26549;50.918;5.338;2023-06-19T13:24:36;27.30;87.80
40828;DHT22;26549;50.918;5.338;2023-06-19T13:27:02;27.30;86.10
40828;DHT22;26549;50.918;5.338;2023-06-19T13:29:28;27.40;86.80
40828;DHT22;26549;50.918;5.338;2023-06-19T13:31:53;27.60;84.80
40828;DHT22;26549;50.918;5.338;2023-06-19T13:34:19;27.50;85.40
40828;DHT22;26549;50.918;5.338;2023-06-19T13:36:47;27.50;86.30
40828;DHT22;26549;50.918;5.338;2023-06-19T13:39:14;27.40;85.30
40828;DHT22;26549;50.918;5.338;2023-06-19T13:41:41;27.50;85.30
40828;DHT22;26549;50.918;5.338;2023-06-19T13:44:08;27.40;85.20
40828;DHT22;26549;50.918;5.338;2023-06-19T13:46:35;27.50;84.90
40828;DHT22;26549;50.918;5.338;2023-06-19T13:49:02;27.50;85.00
40828;DHT22;26549;50.918;5.338;2023-06-19T13:51:28;27.70;84.20
40828;DHT22;26549;50.918;5.338;2023-06-19T13:53:54;27.90;83.00
40828;DHT22;26549;50.918;5.338;2023-06-19T13:56:20;28.00;84.20
40828;DHT22;26549;50.918;5.338;2023-06-19T13:58:46;28.00;82.70
40828;DHT22;26549;50.918;5.338;2023-06-19T14:01:12;27.80;81.70
40828;DHT22;26549;50.918;5.338;2023-06-19T14:03:38;27.70;82.10
40828;DHT22;26549;50.918;5.338;2023-06-19T14:06:06;27.70;84.90
40828;DHT22;26549;50.918;5.338;2023-06-19T14:08:32;28.00;85.40
40828;DHT22;26549;50.918;5.338;2023-06-19T14:10:58;28.30;85.20
40828;DHT22;26549;50.918;5.338;2023-06-19T14:13:24;28.30;84.90
40828;DHT22;26549;50.918;5.338;2023-06-19T14:15:50;28.20;83.30
40828;DHT22;26549;50.918;5.338;2023-06-19T14:18:16;28.30;84.80
40828;DHT22;26549;50.918;5.338;2023-06-19T14:20:42;28.40;85.00
40828;DHT22;26549;50.918;5.338;2023-06-19T14:23:08;28.50;83.60
40828;DHT22;26549;50.918;5.338;2023-06-19T14:25:34;28.50;84.50
40828;DHT22;26549;50.918;5.338;2023-06-19T14:28:00;28.50;83.10
40828;DHT22;26549;50.918;5.338;2023-06-19T14:30:26;28.60;83.60
40828;DHT22;26549;50.918;5.338;2023-06-19T14:32:51;28.50;84.40
40828;DHT22;26549;50.918;5.338;2023-06-19T14:35:17;28.30;82.60
40828;DHT22;26549;50.918;5.338;2023-06-19T14:37:43;28.30;83.30
40828;DHT22;26549;50.918;5.338;2023-06-19T14:40:09;28.30;83.70
40828;DHT22;26549;50.918;5.338;2023-06-19T14:42:35;28.30;83.20
40828;DHT22;26549;50.918;5.338;2023-06-19T14:45:01;28.30;84.10
40828;DHT22;26549;50.918;5.338;2023-06-19T14:47:26;28.50;84.60
40828;DHT22;26549;50.918;5.338;2023-06-19T14:49:52;28.70;83.30
40828;DHT22;26549;50.918;5.338;2023-06-19T14:52:21;28.80;83.80
40828;DHT22;26549;50.918;5.338;2023-06-19T14:54:47;28.80;83.90
40828;DHT22;26549;50.918;5.338;2023-06-19T14:57:13;29.00;81.80
40828;DHT22;26549;50.918;5.338;2023-06-19T14:59:38;29.10;81.40
40828;DHT22;26549;50.918;5.338;2023-06-19T15:02:05;28.90;82.20
40828;DHT22;26549;50.918;5.338;2023-06-19T15:04:33;28.90;82.40
40828;DHT22;26549;50.918;5.338;2023-06-19T15:06:59;29.00;81.60
40828;DHT22;26549;50.918;5.338;2023-06-19T15:09:24;28.90;81.40
40828;DHT22;26549;50.918;5.338;2023-06-19T15:11:51;29.00;81.50
40828;DHT22;26549;50.918;5.338;2023-06-19T15:14:18;29.10;82.70
40828;DHT22;26549;50.918;5.338;2023-06-19T15:16:44;29.10;82.20
40828;DHT22;26549;50.918;5.338;2023-06-19T15:19:09;29.00;83.00
40828;DHT22;26549;50.918;5.338;2023-06-19T15:21:35;29.10;83.60
40828;DHT22;26549;50.918;5.338;2023-06-19T15:24:01;29.20;82.30
40828;DHT22;26549;50.918;5.338;2023-06-19T15:26:26;29.30;82.20
40828;DHT22;26549;50.918;5.338;2023-06-19T15:28:52;29.30;82.00
40828;DHT22;26549;50.918;5.338;2023-06-19T15:31:21;29.30;82.20
40828;DHT22;26549;50.918;5.338;2023-06-19T15:33:51;29.20;82.50
40828;DHT22;26549;50.918;5.338;2023-06-19T15:36:17;29.10;82.30